Guaira, Brazil
Current Conditions -  °F | °C
As of 12:00 AM on Sunday 23 Nov 2014 (Local Time) from SBUR Reporting Station
Few Clouds Few Clouds  
Wind Chill: 70°   Ceiling: Unl
Heat Index: 70°   Visibility: 6mi
Dew Point: 70°   Wind: 6mph
Humidity: 100%   Direction: 350°N
Pressure: 30.03"   Gusts: NA
Location:  20.33°S, 48.32°W
Report Text: SBUR 230200Z 35005KT 9999 FEW040 21/21 Q1017
Loading
Personal Weather Stations






























Interactive Weather Map New forecast layout! Learn more

10-Day Weather Forecast

Advertisements
Track Severe Weather on mobile